createdAt,value
2017-02-17T00:00:48.699Z,6.47
2017-02-17T00:02:56.502Z,6.42
2017-02-17T00:04:58.692Z,6.39
2017-02-17T00:07:01.156Z,6.36
2017-02-17T00:09:13.622Z,6.38
2017-02-17T00:11:21.021Z,6.41
2017-02-17T00:13:28.407Z,6.44
2017-02-17T00:15:25.788Z,6.46
2017-02-17T00:17:33.172Z,6.5
2017-02-17T00:19:40.590Z,6.55
2017-02-17T00:21:47.869Z,6.58
2017-02-17T00:23:38.009Z,6.6
2017-02-17T00:25:35.334Z,6.63
2017-02-17T00:27:42.650Z,6.68
2017-02-17T00:29:39.892Z,6.71
2017-02-17T00:31:32.557Z,6.75
2017-02-17T00:33:29.774Z,6.79
2017-02-17T00:35:32.399Z,6.82
2017-02-17T00:37:30.179Z,6.85
2017-02-17T00:39:32.382Z,6.9
2017-02-17T00:41:34.737Z,6.95
2017-02-17T00:43:31.997Z,6.99
2017-02-17T00:45:29.221Z,7.03
2017-02-17T00:47:26.432Z,7.1
2017-02-17T00:49:23.826Z,7.18
2017-02-17T00:51:26.094Z,7.27
2017-02-17T00:53:33.309Z,7.38
2017-02-17T00:55:45.702Z,7.48
2017-02-17T00:57:47.947Z,7.58
2017-02-17T00:59:50.167Z,7.66
2017-02-17T01:01:52.693Z,7.72
2017-02-17T01:03:59.948Z,7.78
2017-02-17T01:06:07.265Z,7.82
2017-02-17T01:07:59.498Z,7.86
2017-02-17T01:10:02.253Z,7.9
2017-02-17T01:11:59.813Z,7.92
2017-02-17T01:14:02.745Z,7.92
2017-02-17T01:16:04.995Z,7.92
2017-02-17T01:17:52.266Z,7.92
2017-02-17T01:19:54.568Z,7.93
2017-02-17T01:22:01.939Z,7.92
2017-02-17T01:23:59.254Z,7.91
2017-02-17T01:25:56.500Z,7.9
2017-02-17T01:27:53.818Z,7.92
2017-02-17T01:29:51.016Z,7.96
2017-02-17T01:31:53.174Z,7.99
2017-02-17T01:33:50.368Z,8
2017-02-17T01:35:52.828Z,8.03
2017-02-17T01:37:50.028Z,8.07
2017-02-17T01:39:47.274Z,8.11
2017-02-17T01:41:34.607Z,8.13
2017-02-17T01:43:27.086Z,8.15
2017-02-17T01:45:29.751Z,8.16
2017-02-17T01:47:42.440Z,8.17
2017-02-17T01:49:29.946Z,8.17
2017-02-17T01:51:37.259Z,8.16
2017-02-17T01:53:44.705Z,8.15
2017-02-17T01:55:42.078Z,8.14
2017-02-17T01:57:34.445Z,8.13
2017-02-17T01:59:31.723Z,8.14
2017-02-17T02:01:34.191Z,8.16
2017-02-17T02:03:31.634Z,8.2
2017-02-17T02:05:43.852Z,8.24
2017-02-17T02:07:56.185Z,8.22
2017-02-17T02:09:58.549Z,8.11
2017-02-17T02:12:10.865Z,7.99
2017-02-17T02:14:23.086Z,7.88
2017-02-17T02:16:10.586Z,7.81
2017-02-17T02:18:12.897Z,7.76
2017-02-17T02:20:10.743Z,7.71
2017-02-17T02:22:08.158Z,7.69
2017-02-17T02:24:05.480Z,7.69
2017-02-17T02:25:57.831Z,7.68
2017-02-17T02:27:55.012Z,7.66
2017-02-17T02:29:57.267Z,7.65
2017-02-17T02:31:59.570Z,7.65
2017-02-17T02:33:56.806Z,7.66
2017-02-17T02:35:59.168Z,7.67
2017-02-17T02:38:01.457Z,7.69
2017-02-17T02:40:08.802Z,7.73
2017-02-17T02:42:11.364Z,7.77
2017-02-17T02:44:13.698Z,7.81
2017-02-17T02:46:10.984Z,7.85
2017-02-17T02:48:13.356Z,7.88
2017-02-17T02:50:10.713Z,7.9
2017-02-17T02:52:08.184Z,7.94
2017-02-17T02:54:00.696Z,7.96
2017-02-17T02:55:53.571Z,7.97
2017-02-17T02:57:55.927Z,7.99
2017-02-17T02:59:48.272Z,8.01
2017-02-17T03:01:55.522Z,8.01
2017-02-17T03:03:57.909Z,7.97
2017-02-17T03:05:45.351Z,7.97
2017-02-17T03:07:42.575Z,8.01
2017-02-17T03:09:34.749Z,8.08
2017-02-17T03:11:31.996Z,8.15
2017-02-17T03:13:19.339Z,8.21
2017-02-17T03:15:26.538Z,8.25
2017-02-17T03:17:23.972Z,8.27
2017-02-17T03:19:16.214Z,8.3
2017-02-17T03:21:23.417Z,8.32
2017-02-17T03:23:20.811Z,8.26
2017-02-17T03:25:13.055Z,8.13
2017-02-17T03:27:10.435Z,8
2017-02-17T03:29:12.902Z,7.88
2017-02-17T03:31:05.542Z,7.79
2017-02-17T03:33:02.841Z,7.73
2017-02-17T03:35:05.090Z,7.66
2017-02-17T03:37:02.388Z,7.59
2017-02-17T03:39:06.331Z,7.51
2017-02-17T03:41:08.735Z,7.45
2017-02-17T03:43:11.088Z,7.4
2017-02-17T03:45:18.401Z,7.38
2017-02-17T03:47:25.769Z,7.37
2017-02-17T03:49:23.117Z,7.41
2017-02-17T03:51:25.477Z,7.44
2017-02-17T03:53:22.679Z,7.45
2017-02-17T03:55:25.024Z,7.46
2017-02-17T03:57:37.308Z,7.46
2017-02-17T03:59:39.710Z,7.46
2017-02-17T04:01:42.164Z,7.47
2017-02-17T04:03:41.629Z,7.47
2017-02-17T04:05:49.046Z,7.46
2017-02-17T04:07:46.254Z,7.46
2017-02-17T04:09:48.508Z,7.46
2017-02-17T04:11:40.710Z,7.47
2017-02-17T04:13:38.266Z,7.46
2017-02-17T04:15:40.672Z,7.46
2017-02-17T04:17:42.823Z,7.46
2017-02-17T04:19:40.181Z,7.47
2017-02-17T04:21:37.626Z,7.45
2017-02-17T04:23:40.005Z,7.45
2017-02-17T04:25:42.143Z,7.46
2017-02-17T04:27:39.398Z,7.45
2017-02-17T04:29:41.664Z,7.43
2017-02-17T04:31:38.971Z,7.43
2017-02-17T04:33:36.278Z,7.41
2017-02-17T04:35:28.684Z,7.41
2017-02-17T04:37:20.999Z,7.39
2017-02-17T04:39:18.720Z,7.37
2017-02-17T04:41:20.987Z,7.35
2017-02-17T04:43:13.490Z,7.33
2017-02-17T04:45:06.131Z,7.32
2017-02-17T04:47:13.266Z,7.32
2017-02-17T04:49:05.644Z,7.31
2017-02-17T04:51:12.827Z,7.3
2017-02-17T04:53:05.128Z,7.29
2017-02-17T04:55:02.515Z,7.29
2017-02-17T04:57:14.763Z,7.29
2017-02-17T04:59:12.000Z,7.3
2017-02-17T05:01:09.204Z,7.3
2017-02-17T05:03:11.345Z,7.31
2017-02-17T05:05:13.549Z,7.32
2017-02-17T05:07:20.934Z,7.32
2017-02-17T05:09:18.272Z,7.34
2017-02-17T05:11:25.645Z,7.36
2017-02-17T05:13:22.878Z,7.37
2017-02-17T05:15:25.100Z,7.37
2017-02-17T05:17:22.577Z,7.38
2017-02-17T05:19:20.413Z,7.37
2017-02-17T05:21:27.736Z,7.37
2017-02-17T05:23:20.012Z,7.38
2017-02-17T05:25:22.406Z,7.4
2017-02-17T05:27:19.573Z,7.39
2017-02-17T05:29:11.867Z,7.37
2017-02-17T05:31:04.244Z,7.37
2017-02-17T05:33:16.445Z,7.35
2017-02-17T05:35:28.676Z,7.3
2017-02-17T05:37:21.064Z,7.28
2017-02-17T05:39:23.389Z,7.24
2017-02-17T05:41:30.747Z,7.22
2017-02-17T05:43:32.996Z,7.19
2017-02-17T05:45:25.406Z,7.19
2017-02-17T05:47:22.716Z,7.18
2017-02-17T05:49:24.979Z,7.18
2017-02-17T05:51:17.413Z,7.16
2017-02-17T05:53:24.704Z,7.16
2017-02-17T05:55:36.987Z,7.17
2017-02-17T05:57:34.851Z,7.19
2017-02-17T05:59:37.187Z,7.19
2017-02-17T06:01:29.505Z,7.2
2017-02-17T06:03:31.960Z,7.2
2017-02-17T06:05:39.487Z,7.22
2017-02-17T06:07:46.725Z,7.24
2017-02-17T06:09:57.449Z,7.25
2017-02-17T06:11:59.848Z,7.26
2017-02-17T06:13:57.138Z,7.29
2017-02-17T06:15:49.397Z,7.31
2017-02-17T06:17:56.663Z,7.32
2017-02-17T06:19:49.032Z,7.33
2017-02-17T06:21:51.374Z,7.34
2017-02-17T06:23:53.805Z,7.36
2017-02-17T06:25:46.111Z,7.39
2017-02-17T06:27:48.287Z,7.43
2017-02-17T06:29:40.685Z,7.46
2017-02-17T06:31:33.232Z,7.48
2017-02-17T06:33:30.818Z,7.51
2017-02-17T06:35:33.206Z,7.53
2017-02-17T06:37:40.365Z,7.59
2017-02-17T06:39:32.659Z,7.62
2017-02-17T06:41:29.909Z,7.66
2017-02-17T06:43:30.372Z,7.68
2017-02-17T06:45:37.774Z,7.69
2017-02-17T06:47:50.092Z,7.7
2017-02-17T06:49:57.380Z,7.67
2017-02-17T06:51:54.709Z,7.68
2017-02-17T06:53:52.024Z,7.72
2017-02-17T06:55:54.380Z,7.73
2017-02-17T06:57:36.766Z,7.73
2017-02-17T06:59:39.143Z,7.75
2017-02-17T07:01:51.562Z,7.76
2017-02-17T07:03:43.937Z,7.77
2017-02-17T07:05:51.520Z,7.76
2017-02-17T07:07:54.251Z,7.73
2017-02-17T07:09:56.719Z,7.73
2017-02-17T07:11:54.128Z,7.74
2017-02-17T07:13:46.469Z,7.76
2017-02-17T07:15:53.716Z,7.81
2017-02-17T07:18:00.882Z,7.82
2017-02-17T07:19:48.322Z,7.84
2017-02-17T07:21:55.459Z,7.82
2017-02-17T07:23:57.714Z,7.81
2017-02-17T07:25:59.926Z,7.8
2017-02-17T07:27:52.361Z,7.79
2017-02-17T07:29:39.912Z,7.75
2017-02-17T07:31:53.673Z,7.72
2017-02-17T07:33:50.999Z,7.7
2017-02-17T07:35:53.198Z,7.68
2017-02-17T07:37:45.510Z,7.68
2017-02-17T07:39:27.953Z,7.71
2017-02-17T07:41:30.415Z,7.73
2017-02-17T07:43:32.732Z,7.76
2017-02-17T07:45:30.053Z,7.8
2017-02-17T07:47:32.577Z,7.84
2017-02-17T07:49:24.910Z,7.83
2017-02-17T07:51:27.107Z,7.83
2017-02-17T07:53:29.336Z,7.83
2017-02-17T07:55:21.804Z,7.85
2017-02-17T07:57:19.254Z,7.85
2017-02-17T07:59:11.677Z,7.85
2017-02-17T08:01:09.074Z,7.9
2017-02-17T08:03:16.322Z,7.98
2017-02-17T08:05:13.607Z,7.99
2017-02-17T08:07:15.835Z,7.95
2017-02-17T08:09:18.103Z,7.89
2017-02-17T08:11:13.760Z,7.9
2017-02-17T08:13:11.064Z,7.9
2017-02-17T08:15:03.552Z,7.98
2017-02-17T08:17:19.577Z,8.07
2017-02-17T08:19:18.555Z,8.02
2017-02-17T08:21:20.923Z,8.01
2017-02-17T08:23:28.059Z,7.98
2017-02-17T08:25:25.964Z,8.01
2017-02-17T08:27:23.201Z,8
2017-02-17T08:29:20.708Z,7.96
2017-02-17T08:31:13.301Z,7.9
2017-02-17T08:33:15.690Z,7.82
2017-02-17T08:35:17.874Z,7.79
2017-02-17T08:37:10.225Z,7.81
2017-02-17T08:39:07.399Z,7.86
2017-02-17T08:41:09.776Z,7.91
2017-02-17T08:43:18.365Z,8
2017-02-17T08:45:15.621Z,8.05
2017-02-17T08:47:18.027Z,8.12
2017-02-17T08:49:20.230Z,8.24
2017-02-17T08:51:17.511Z,8.34
2017-02-17T08:53:14.963Z,8.4
2017-02-17T08:55:12.334Z,8.46
2017-02-17T08:57:09.913Z,8.54
2017-02-17T08:59:07.278Z,8.61
2017-02-17T09:01:09.589Z,8.65
2017-02-17T09:03:06.803Z,8.64
2017-02-17T09:05:14.006Z,8.59
2017-02-17T09:07:16.226Z,8.57
2017-02-17T09:09:08.556Z,8.5
2017-02-17T09:11:00.939Z,8.39
2017-02-17T09:13:03.181Z,8.3
2017-02-17T09:15:05.354Z,8.24
2017-02-17T09:16:57.596Z,8.12
2017-02-17T09:18:43.218Z,8.02
2017-02-17T09:20:56.403Z,7.94
2017-02-17T09:22:57.322Z,7.91
2017-02-17T09:24:54.565Z,7.83
2017-02-17T09:26:56.785Z,7.79
2017-02-17T09:28:54.020Z,7.8
2017-02-17T09:31:01.358Z,7.82
2017-02-17T09:32:58.575Z,7.9
2017-02-17T09:34:56.388Z,8.04
2017-02-17T09:36:53.584Z,8.11
2017-02-17T09:39:01.179Z,8.14
2017-02-17T09:41:03.438Z,8.09
2017-02-17T09:43:15.979Z,8.06
2017-02-17T09:45:20.388Z,8.05
2017-02-17T09:47:07.751Z,8.09
2017-02-17T09:48:55.039Z,8.14
2017-02-17T09:50:52.353Z,8.19
2017-02-17T09:52:59.666Z,8.24
2017-02-17T09:54:56.903Z,8.36
2017-02-17T09:56:54.200Z,8.38
2017-02-17T09:58:51.574Z,8.37
2017-02-17T10:00:53.883Z,8.41
2017-02-17T10:02:36.207Z,8.47
2017-02-17T10:04:28.446Z,8.5
2017-02-17T10:06:40.768Z,8.58
2017-02-17T10:08:43.338Z,8.64
2017-02-17T10:10:45.954Z,8.62
2017-02-17T10:12:43.556Z,8.58
2017-02-17T10:14:45.852Z,8.53
2017-02-17T10:16:33.106Z,8.48
2017-02-17T10:18:40.329Z,8.43
2017-02-17T10:20:37.710Z,8.41
2017-02-17T10:22:35.075Z,8.36
2017-02-17T10:24:42.406Z,8.29
2017-02-17T10:26:49.702Z,8.21
2017-02-17T10:28:41.981Z,8.21
2017-02-17T10:30:49.224Z,8.24
2017-02-17T10:32:41.682Z,8.25
2017-02-17T10:34:47.900Z,8.29
2017-02-17T10:37:01.880Z,8.34
2017-02-17T10:38:59.108Z,8.27
2017-02-17T10:40:46.624Z,8.27
2017-02-17T10:42:49.769Z,8.32
2017-02-17T10:44:47.146Z,8.37
2017-02-17T10:46:49.375Z,8.44
2017-02-17T10:48:51.679Z,8.47
2017-02-17T10:50:54.909Z,8.6
2017-02-17T10:53:02.267Z,8.71
2017-02-17T10:54:59.520Z,8.77
2017-02-17T10:57:06.791Z,8.77
2017-02-17T10:59:04.221Z,8.74
2017-02-17T11:01:11.441Z,8.65
2017-02-17T11:03:13.592Z,8.5
2017-02-17T11:05:25.900Z,8.41
2017-02-17T11:07:13.298Z,8.4
2017-02-17T11:09:15.511Z,8.37
2017-02-17T11:11:07.781Z,8.34
2017-02-17T11:12:55.158Z,8.4
2017-02-17T11:14:57.494Z,8.48
2017-02-17T11:16:59.791Z,8.46
2017-02-17T11:19:07.085Z,8.48
2017-02-17T11:21:04.357Z,8.53
2017-02-17T11:23:06.736Z,8.63
2017-02-17T11:25:04.221Z,8.69
2017-02-17T11:27:00.722Z,8.74
2017-02-17T11:29:02.958Z,8.57
2017-02-17T11:31:10.119Z,8.34
2017-02-17T11:33:07.391Z,8.29
2017-02-17T11:35:09.713Z,8.21
2017-02-17T11:37:06.878Z,7.99
2017-02-17T11:39:09.230Z,7.9
2017-02-17T11:41:06.560Z,7.91
2017-02-17T11:42:58.918Z,7.88
2017-02-17T11:45:01.258Z,7.88
2017-02-17T11:47:03.435Z,7.82
2017-02-17T11:48:55.659Z,7.8
2017-02-17T11:50:47.972Z,7.84
2017-02-17T11:52:45.175Z,7.83
2017-02-17T11:54:37.440Z,7.86
2017-02-17T11:56:24.690Z,7.88
2017-02-17T11:58:16.917Z,7.86
2017-02-17T12:00:14.422Z,7.85
2017-02-17T12:02:12.023Z,7.9
2017-02-17T12:04:24.372Z,7.98
2017-02-17T12:06:31.766Z,8.02
2017-02-17T12:08:29.076Z,7.97
2017-02-17T12:10:26.563Z,7.91
2017-02-17T12:12:18.897Z,7.85
2017-02-17T12:14:06.328Z,7.8
2017-02-17T12:15:58.721Z,7.77
2017-02-17T12:18:00.957Z,7.76
2017-02-17T12:19:53.232Z,7.73
2017-02-17T12:21:50.460Z,7.65
2017-02-17T12:23:47.874Z,7.56
2017-02-17T12:26:00.165Z,7.48
2017-02-17T12:28:02.471Z,7.42
2017-02-17T12:29:54.788Z,7.36
2017-02-17T12:31:47.174Z,7.34
2017-02-17T12:33:44.478Z,7.37
2017-02-17T12:35:37.182Z,7.39
2017-02-17T12:37:34.535Z,7.43
2017-02-17T12:39:27.247Z,7.5
2017-02-17T12:41:19.808Z,7.57
2017-02-17T12:43:17.056Z,7.64
2017-02-17T12:45:14.443Z,7.68
2017-02-17T12:47:11.897Z,7.69
2017-02-17T12:49:19.319Z,7.72
2017-02-17T12:51:21.789Z,7.83
2017-02-17T12:53:19.121Z,7.87
2017-02-17T12:55:11.358Z,7.82
2017-02-17T12:57:08.767Z,7.73
2017-02-17T12:59:06.027Z,7.63
2017-02-17T13:01:08.294Z,7.51
2017-02-17T13:03:00.588Z,7.45
2017-02-17T13:04:57.903Z,7.39
2017-02-17T13:07:00.131Z,7.36
2017-02-17T13:09:12.373Z,7.5
2017-02-17T13:11:09.853Z,7.67
2017-02-17T13:13:07.172Z,7.83
2017-02-17T13:14:59.537Z,8.02
2017-02-17T13:16:52.052Z,8.12
2017-02-17T13:18:59.298Z,8.03
2017-02-17T13:21:07.808Z,7.9
2017-02-17T13:23:15.126Z,7.74
2017-02-17T13:25:12.398Z,7.59
2017-02-17T13:27:04.916Z,7.45
2017-02-17T13:29:07.237Z,7.34
2017-02-17T13:30:59.563Z,7.28
2017-02-17T13:33:02.167Z,7.15
2017-02-17T13:34:59.652Z,7.06
2017-02-17T13:36:57.208Z,7.07
2017-02-17T13:38:59.509Z,7.13
2017-02-17T13:41:01.960Z,7.15
2017-02-17T13:43:04.261Z,7.12
2017-02-17T13:45:06.668Z,7.17
2017-02-17T13:46:59.086Z,7.27
2017-02-17T13:48:56.564Z,7.29
2017-02-17T13:51:09.257Z,7.44
2017-02-17T13:53:11.570Z,7.62
2017-02-17T13:55:13.994Z,7.71
2017-02-17T13:57:16.411Z,7.92
2017-02-17T13:59:23.869Z,8.21
2017-02-17T14:01:21.833Z,8.35
2017-02-17T14:03:29.513Z,8.39
2017-02-17T14:05:37.207Z,9.18
2017-02-17T14:07:19.855Z,9.06
2017-02-17T14:09:27.369Z,8.59
2017-02-17T14:11:26.331Z,8.33
2017-02-17T14:13:33.695Z,8.08
2017-02-17T14:15:36.319Z,8.05
2017-02-17T14:17:33.860Z,8.13
2017-02-17T14:19:31.403Z,7.98
2017-02-17T14:21:33.876Z,7.9
2017-02-17T14:23:41.355Z,7.82
2017-02-17T14:25:38.792Z,8.06
2017-02-17T14:27:46.345Z,9.14
2017-02-17T14:29:48.622Z,9.43
2017-02-17T14:32:00.845Z,8.89
2017-02-17T14:34:08.048Z,8.44
2017-02-17T14:36:15.559Z,9.29
2017-02-17T14:38:21.363Z,11.84
2017-02-17T14:40:23.810Z,13.43
2017-02-17T14:42:31.284Z,13.32
2017-02-17T14:44:23.730Z,13.37
2017-02-17T14:46:21.277Z,13.74
2017-02-17T14:48:13.782Z,13.83
2017-02-17T14:50:17.701Z,13.93
2017-02-17T14:52:25.002Z,14.35
2017-02-17T14:54:27.517Z,14.47
2017-02-17T14:56:19.873Z,14.21
2017-02-17T14:58:17.225Z,13.53
2017-02-17T15:00:24.596Z,14.2
2017-02-17T15:02:27.376Z,13.14
2017-02-17T15:04:19.884Z,12.42
2017-02-17T15:06:22.232Z,12.75
2017-02-17T15:08:09.650Z,12.17
2017-02-17T15:10:06.924Z,11.51
2017-02-17T15:12:09.158Z,11.94
2017-02-17T15:14:06.476Z,12.19
2017-02-17T15:16:08.769Z,12
2017-02-17T15:18:07.657Z,11.44
2017-02-17T15:20:15.043Z,11.57
2017-02-17T15:22:22.839Z,11.88
2017-02-17T15:24:15.221Z,11.96
2017-02-17T15:26:22.541Z,11.62
2017-02-17T15:28:24.946Z,11.39
2017-02-17T15:30:17.395Z,11.09
2017-02-17T15:32:19.756Z,10.59
2017-02-17T15:34:17.435Z,9.61
2017-02-17T15:36:24.940Z,9.08
2017-02-17T15:38:27.295Z,9.13
2017-02-17T15:40:29.463Z,9.41
2017-02-17T15:42:21.752Z,9.73
2017-02-17T15:44:24.283Z,10.16
2017-02-17T15:46:16.627Z,10.58
2017-02-17T15:47:58.955Z,10.52
2017-02-17T15:49:56.288Z,9.71
2017-02-17T15:51:58.675Z,9.11
2017-02-17T15:54:00.936Z,8.7
2017-02-17T15:56:08.353Z,8.42
2017-02-17T15:58:05.660Z,8.25
2017-02-17T16:00:12.956Z,8.12
2017-02-17T16:02:10.305Z,8.03
2017-02-17T16:04:12.716Z,7.94
2017-02-17T16:06:09.996Z,7.85
2017-02-17T16:08:17.504Z,7.72
2017-02-17T16:10:14.971Z,7.54
2017-02-17T16:11:57.512Z,7.4
2017-02-17T16:13:59.863Z,7.23
2017-02-17T16:16:02.246Z,7.09
2017-02-17T16:18:09.587Z,6.96
2017-02-17T16:20:18.036Z,6.82
2017-02-17T16:22:26.361Z,6.71
2017-02-17T16:24:20.187Z,6.63
2017-02-17T16:26:23.505Z,6.52
2017-02-17T16:28:28.772Z,6.43
2017-02-17T16:30:42.200Z,6.34
2017-02-17T16:32:47.993Z,6.26
2017-02-17T16:34:51.642Z,6.2
2017-02-17T16:36:54.696Z,6.13
2017-02-17T16:39:03.057Z,6.08
2017-02-17T16:41:06.100Z,6.03
2017-02-17T16:43:13.925Z,5.98
2017-02-17T16:45:11.987Z,5.93
2017-02-17T16:47:15.063Z,5.86
2017-02-17T16:49:18.423Z,5.79
2017-02-17T16:51:10.876Z,5.72
2017-02-17T16:53:08.385Z,5.68
2017-02-17T16:55:10.963Z,5.65
2017-02-17T16:57:03.354Z,5.61
2017-02-17T16:59:00.648Z,5.58
2017-02-17T17:01:03.124Z,5.55
2017-02-17T17:03:10.462Z,5.52
2017-02-17T17:05:12.972Z,5.5
2017-02-17T17:07:10.516Z,5.49
2017-02-17T17:09:12.980Z,5.49
2017-02-17T17:11:20.223Z,5.49
2017-02-17T17:13:22.583Z,5.49
2017-02-17T17:15:05.141Z,5.5
2017-02-17T17:17:12.391Z,5.51
2017-02-17T17:19:25.064Z,5.52
2017-02-17T17:21:27.835Z,5.52
2017-02-17T17:23:30.238Z,5.53
2017-02-17T17:25:22.540Z,5.54
2017-02-17T17:27:24.950Z,5.54
2017-02-17T17:29:22.194Z,5.54
2017-02-17T17:31:24.626Z,5.55
2017-02-17T17:33:17.157Z,5.54
2017-02-17T17:35:14.559Z,5.54
2017-02-17T17:37:06.995Z,5.53
2017-02-17T17:39:09.552Z,5.52
2017-02-17T17:41:11.890Z,5.53
2017-02-17T17:43:19.303Z,5.52
2017-02-17T17:45:26.718Z,5.51
2017-02-17T17:47:34.179Z,5.51
2017-02-17T17:49:31.499Z,5.51
2017-02-17T17:51:33.675Z,5.51
2017-02-17T17:53:35.988Z,5.51
2017-02-17T17:55:38.718Z,5.51
2017-02-17T17:57:36.172Z,5.51
2017-02-17T17:59:28.462Z,5.53
2017-02-17T18:01:15.835Z,5.54
2017-02-17T18:03:13.185Z,5.54
2017-02-17T18:05:15.627Z,5.56
2017-02-17T18:07:23.274Z,5.56
2017-02-17T18:09:15.564Z,5.57
2017-02-17T18:11:17.929Z,5.57
2017-02-17T18:13:10.448Z,5.58
2017-02-17T18:15:07.791Z,5.58
2017-02-17T18:17:20.169Z,5.59
2017-02-17T18:19:17.604Z,5.6
2017-02-17T18:21:20.096Z,5.61
2017-02-17T18:23:27.614Z,5.62
2017-02-17T18:25:29.902Z,5.64
2017-02-17T18:27:22.437Z,5.66
2017-02-17T18:29:24.785Z,5.69
2017-02-17T18:31:27.350Z,5.69
2017-02-17T18:33:29.624Z,5.68
2017-02-17T18:35:37.061Z,5.66
2017-02-17T18:37:39.489Z,5.65
2017-02-17T18:39:51.831Z,5.65
2017-02-17T18:41:49.197Z,5.65
2017-02-17T18:44:01.560Z,5.66
2017-02-17T18:46:07.137Z,5.65
2017-02-17T18:48:09.555Z,5.65
2017-02-17T18:50:06.851Z,5.68
2017-02-17T18:51:59.173Z,5.7
2017-02-17T18:53:56.715Z,5.71
2017-02-17T18:55:59.906Z,5.71
2017-02-17T18:58:07.148Z,5.72
2017-02-17T19:00:14.460Z,5.73
2017-02-17T19:02:12.889Z,5.74
2017-02-17T19:03:58.695Z,5.76
2017-02-17T19:06:01.167Z,5.78
2017-02-17T19:07:58.638Z,5.79
2017-02-17T19:10:11.859Z,5.8
2017-02-17T19:12:19.306Z,5.8
2017-02-17T19:14:21.744Z,5.81
2017-02-17T19:16:15.562Z,5.8
2017-02-17T19:18:13.065Z,5.78
2017-02-17T19:20:20.431Z,5.76
2017-02-17T19:22:17.803Z,5.75
2017-02-17T19:24:15.344Z,5.74
2017-02-17T19:26:07.828Z,5.72
2017-02-17T19:28:10.478Z,5.71
2017-02-17T19:30:07.846Z,5.7
2017-02-17T19:32:00.250Z,5.69
2017-02-17T19:34:02.550Z,5.67
2017-02-17T19:36:05.384Z,5.66
2017-02-17T19:38:12.743Z,5.65
2017-02-17T19:40:05.778Z,5.65
2017-02-17T19:42:03.415Z,5.65
2017-02-17T19:44:11.741Z,5.66
2017-02-17T19:46:14.462Z,5.67
2017-02-17T19:48:06.729Z,5.64
2017-02-17T19:50:04.613Z,5.6
2017-02-17T19:52:07.724Z,5.58
2017-02-17T19:54:15.174Z,5.57
2017-02-17T19:56:19.286Z,5.59
2017-02-17T19:58:27.200Z,5.61
2017-02-17T20:00:24.793Z,5.64
2017-02-17T20:02:22.064Z,5.67
2017-02-17T20:04:19.516Z,5.7
2017-02-17T20:08:39.526Z,5.69
2017-02-17T20:10:41.863Z,5.69
2017-02-17T20:12:54.616Z,5.7
2017-02-17T20:15:18.164Z,5.71
2017-02-17T20:17:15.578Z,5.73
2017-02-17T20:19:24.585Z,5.74
2017-02-17T20:21:31.358Z,5.74
2017-02-17T20:23:23.823Z,5.74
2017-02-17T20:25:31.997Z,5.74
2017-02-17T20:27:24.449Z,5.75
2017-02-17T20:29:32.619Z,5.73
2017-02-17T20:31:49.897Z,5.71
2017-02-17T20:33:47.361Z,5.71
2017-02-17T20:35:49.741Z,5.73
2017-02-17T20:37:57.101Z,5.76
2017-02-17T20:39:57.675Z,5.73
2017-02-17T20:42:05.062Z,5.75
2017-02-17T20:44:07.581Z,5.78
2017-02-17T20:46:10.205Z,5.8
2017-02-17T20:47:52.814Z,5.81
2017-02-17T20:49:50.295Z,5.84
2017-02-17T20:51:52.662Z,5.85
2017-02-17T20:53:55.046Z,5.85
2017-02-17T20:55:47.481Z,5.83
2017-02-17T20:57:49.865Z,5.8
2017-02-17T20:59:57.313Z,5.75
2017-02-17T21:01:49.660Z,5.68
2017-02-17T21:03:51.971Z,5.61
2017-02-17T21:05:54.453Z,5.57
2017-02-17T21:07:52.773Z,5.55
2017-02-17T21:09:50.095Z,5.52
2017-02-17T21:11:52.391Z,5.48
2017-02-17T21:13:54.642Z,5.43
2017-02-17T21:15:52.023Z,5.36
2017-02-17T21:17:59.302Z,5.29
2017-02-17T21:19:56.941Z,5.21
2017-02-17T21:21:55.054Z,5.15
2017-02-17T21:23:52.680Z,5.1
2017-02-17T21:25:54.999Z,5.06
2017-02-17T21:28:02.249Z,5.02
2017-02-17T21:30:05.106Z,5
2017-02-17T21:32:10.478Z,4.98
2017-02-17T21:34:07.842Z,4.96
2017-02-17T21:35:55.938Z,4.95
2017-02-17T21:37:58.193Z,4.92
2017-02-17T21:39:55.488Z,4.89
2017-02-17T21:42:02.947Z,4.86
2017-02-17T21:44:00.316Z,4.82
2017-02-17T21:46:02.600Z,4.8
2017-02-17T21:47:54.856Z,4.78
2017-02-17T21:49:52.345Z,4.76
2017-02-17T21:51:54.767Z,4.75
2017-02-17T21:54:02.211Z,4.74
2017-02-17T21:55:54.680Z,4.74
2017-02-17T21:57:57.026Z,4.74
2017-02-17T22:00:04.261Z,4.74
2017-02-17T22:01:56.721Z,4.75
2017-02-17T22:04:04.183Z,4.74
2017-02-17T22:06:01.773Z,4.74
2017-02-17T22:08:14.228Z,4.74
2017-02-17T22:10:06.603Z,4.75
2017-02-17T22:12:09.023Z,4.75
2017-02-17T22:14:07.521Z,4.77
2017-02-17T22:16:14.977Z,4.78
2017-02-17T22:18:17.564Z,4.8
2017-02-17T22:20:19.911Z,4.8
2017-02-17T22:22:17.289Z,4.8
2017-02-17T22:24:19.825Z,4.81
2017-02-17T22:26:17.066Z,4.8
2017-02-17T22:28:19.408Z,4.79
2017-02-17T22:30:01.841Z,4.78
2017-02-17T22:31:59.119Z,4.77
2017-02-17T22:33:56.516Z,4.76
2017-02-17T22:35:58.763Z,4.75
2017-02-17T22:38:01.101Z,4.76
2017-02-17T22:39:58.470Z,4.77
2017-02-17T22:41:50.735Z,4.79
2017-02-17T22:43:57.941Z,4.81
2017-02-17T22:45:55.378Z,4.8
2017-02-17T22:47:53.125Z,4.81
2017-02-17T22:50:00.470Z,4.81
2017-02-17T22:52:12.666Z,4.81
2017-02-17T22:54:25.218Z,4.83
2017-02-17T22:56:32.750Z,4.83
2017-02-17T22:58:30.016Z,4.85
2017-02-17T23:00:32.267Z,4.86
2017-02-17T23:02:34.573Z,4.85
2017-02-17T23:04:42.010Z,4.86
2017-02-17T23:06:44.300Z,4.87
2017-02-17T23:08:41.856Z,4.87
2017-02-17T23:10:39.134Z,4.88
2017-02-17T23:12:36.543Z,4.88
2017-02-17T23:14:33.963Z,4.86
2017-02-17T23:16:31.377Z,4.87
2017-02-17T23:18:28.620Z,4.88
2017-02-17T23:20:40.857Z,4.89
2017-02-17T23:22:43.284Z,4.89
2017-02-17T23:24:45.457Z,4.9
2017-02-17T23:26:48.001Z,4.92
2017-02-17T23:28:50.478Z,4.95
2017-02-17T23:30:58.038Z,5
2017-02-17T23:33:00.458Z,5
2017-02-17T23:34:47.819Z,5.02
2017-02-17T23:36:55.162Z,5.04
2017-02-17T23:38:52.524Z,5.06
2017-02-17T23:41:04.743Z,5.08
2017-02-17T23:43:02.007Z,5.08
2017-02-17T23:45:04.384Z,5.1
2017-02-17T23:47:01.784Z,5.11
2017-02-17T23:48:54.196Z,5.13
2017-02-17T23:50:56.710Z,5.15
2017-02-17T23:52:59.043Z,5.18
2017-02-17T23:54:56.513Z,5.2
2017-02-17T23:56:58.767Z,5.22
2017-02-17T23:59:11.161Z,5.25
